createdAt,value
2022-10-18T00:01:59.724Z,77.21
2022-10-18T00:07:00.965Z,76.22
2022-10-18T00:12:02.207Z,77.54
2022-10-18T00:17:03.406Z,77.69
2022-10-18T00:22:04.618Z,76.16
2022-10-18T00:27:05.842Z,77.74
2022-10-18T00:32:07.131Z,77.90
2022-10-18T00:37:08.400Z,77.46
2022-10-18T00:42:09.874Z,78.62
2022-10-18T00:47:11.191Z,79.05
2022-10-18T00:52:12.389Z,78.18
2022-10-18T00:57:13.579Z,78.23
2022-10-18T01:02:18.100Z,78.35
2022-10-18T01:07:19.298Z,77.64
2022-10-18T01:12:20.539Z,78.77
2022-10-18T01:17:21.822Z,79.30
2022-10-18T01:22:23.104Z,78.00
2022-10-18T01:27:24.518Z,77.91
2022-10-18T01:32:25.727Z,77.59
2022-10-18T01:37:26.961Z,78.82
2022-10-18T01:42:28.448Z,78.75
2022-10-18T01:47:29.992Z,78.14
2022-10-18T01:52:31.867Z,77.39
2022-10-18T01:57:33.245Z,77.54
2022-10-18T02:02:34.574Z,77.43
2022-10-18T02:07:35.835Z,77.38
2022-10-18T02:12:37.051Z,77.45
2022-10-18T02:17:38.245Z,77.26
2022-10-18T02:22:40.854Z,77.94
2022-10-18T02:27:42.066Z,76.96
2022-10-18T02:32:43.267Z,76.83
2022-10-18T02:37:44.552Z,77.30
2022-10-18T02:42:45.810Z,77.22
2022-10-18T02:47:47.026Z,77.14
2022-10-18T02:52:48.229Z,77.58
2022-10-18T02:57:49.472Z,78.18
2022-10-18T03:02:50.743Z,78.84
2022-10-18T03:07:51.962Z,79.06
2022-10-18T03:12:53.257Z,79.46
2022-10-18T03:17:54.446Z,80.01
2022-10-18T03:22:55.648Z,80.40
2022-10-18T03:27:56.868Z,81.08
2022-10-18T03:32:58.087Z,80.87
2022-10-18T03:37:59.290Z,81.68
2022-10-18T03:43:00.625Z,81.41
2022-10-18T03:48:01.905Z,81.62
2022-10-18T03:53:03.103Z,81.49
2022-10-18T03:58:04.323Z,82.05
2022-10-18T04:03:05.527Z,82.52
2022-10-18T04:08:06.733Z,82.47
2022-10-18T04:13:07.923Z,82.56
2022-10-18T04:18:09.126Z,82.96
2022-10-18T04:23:10.351Z,82.40
2022-10-18T04:28:11.574Z,82.48
2022-10-18T04:33:12.781Z,82.65
2022-10-18T04:38:14.738Z,83.28
2022-10-18T04:43:15.967Z,83.67
2022-10-18T04:48:17.197Z,84.45
2022-10-18T04:53:18.441Z,84.71
2022-10-18T04:58:19.646Z,84.67
2022-10-18T05:03:20.878Z,84.75
2022-10-18T05:08:22.091Z,85.30
2022-10-18T05:13:23.294Z,86.89
2022-10-18T05:18:24.513Z,87.58
2022-10-18T05:23:25.772Z,87.24
2022-10-18T05:28:39.213Z,87.42
2022-10-18T05:33:41.624Z,88.79
2022-10-18T05:38:43.167Z,87.62
2022-10-18T05:43:44.702Z,87.89
2022-10-18T05:48:45.895Z,87.13
2022-10-18T05:53:47.154Z,87.20
2022-10-18T05:58:48.376Z,88.46
2022-10-18T06:03:49.616Z,91.57
2022-10-18T06:08:51.034Z,87.41
2022-10-18T06:13:52.272Z,86.53
2022-10-18T06:18:53.482Z,86.55
2022-10-18T06:23:54.781Z,86.44
2022-10-18T06:28:56.205Z,87.63
2022-10-18T06:34:01.107Z,87.46
2022-10-18T06:39:02.697Z,87.08
2022-10-18T06:44:13.404Z,88.03
2022-10-18T06:49:16.737Z,87.68
2022-10-18T06:54:20.411Z,86.94
2022-10-18T06:59:21.623Z,87.58
2022-10-18T07:04:22.821Z,87.70
2022-10-18T07:09:24.023Z,87.64
2022-10-18T07:14:28.913Z,86.04
2022-10-18T07:19:30.431Z,86.99
2022-10-18T07:29:38.804Z,85.87
2022-10-18T07:34:40.035Z,85.06
2022-10-18T07:39:41.244Z,89.71
2022-10-18T07:44:42.481Z,84.13
2022-10-18T07:49:43.683Z,77.31
2022-10-18T07:54:44.910Z,77.82
2022-10-18T07:59:48.064Z,76.06
2022-10-18T08:04:49.271Z,73.64
2022-10-18T08:09:50.544Z,71.79
2022-10-18T08:14:51.864Z,74.99
2022-10-18T08:20:05.008Z,78.88
2022-10-18T08:25:13.882Z,81.33
2022-10-18T08:30:15.090Z,82.25
2022-10-18T08:35:16.358Z,85.20
2022-10-18T08:40:17.558Z,85.12
2022-10-18T08:45:30.526Z,84.00
2022-10-18T08:50:40.029Z,85.00
2022-10-18T08:55:41.240Z,85.95
2022-10-18T09:00:42.463Z,86.43
2022-10-18T09:05:43.686Z,85.08
2022-10-18T09:10:45.722Z,84.92
2022-10-18T09:15:46.969Z,87.21
2022-10-18T09:20:48.198Z,84.78
2022-10-18T09:25:49.460Z,84.59
2022-10-18T09:30:50.738Z,84.78
2022-10-18T09:35:51.982Z,85.19
2022-10-18T09:40:53.213Z,85.71
2022-10-18T09:45:54.583Z,85.42
2022-10-18T09:50:55.908Z,84.25
2022-10-18T09:55:57.587Z,84.15
2022-10-18T10:00:58.903Z,84.85
2022-10-18T10:06:00.254Z,83.61
2022-10-18T10:11:01.485Z,83.62
2022-10-18T10:16:02.737Z,81.68
2022-10-18T10:21:04.023Z,80.30
2022-10-18T10:26:05.269Z,81.31
2022-10-18T10:31:06.551Z,81.26
2022-10-18T10:36:07.848Z,80.48
2022-10-18T10:41:09.090Z,78.76
2022-10-18T10:46:10.453Z,75.90
2022-10-18T10:51:11.784Z,76.83
2022-10-18T10:56:15.871Z,75.23
2022-10-18T11:01:17.349Z,74.41
2022-10-18T11:06:18.676Z,73.92
2022-10-18T11:11:22.937Z,72.59
2022-10-18T11:16:24.692Z,71.98
2022-10-18T11:21:26.120Z,70.31
2022-10-18T11:26:27.997Z,68.62
2022-10-18T11:31:31.666Z,69.08
2022-10-18T11:36:35.184Z,67.89
2022-10-18T11:41:39.849Z,67.53
2022-10-18T11:46:41.248Z,67.65
2022-10-18T11:52:06.828Z,65.46
2022-10-18T11:57:03.987Z,65.77
2022-10-18T12:02:05.363Z,64.30
2022-10-18T12:07:06.811Z,64.69
2022-10-18T12:12:13.316Z,65.88
2022-10-18T12:17:40.743Z,65.51
2022-10-18T12:22:35.986Z,65.05
2022-10-18T12:27:37.293Z,65.80
2022-10-18T12:32:38.608Z,68.36
2022-10-18T12:37:39.865Z,68.84
2022-10-18T12:42:41.803Z,68.55
2022-10-18T12:47:43.148Z,68.16
2022-10-18T12:52:44.414Z,65.04
2022-10-18T12:57:45.720Z,65.86
2022-10-18T13:02:46.927Z,63.80
2022-10-18T13:07:48.163Z,63.69
2022-10-18T13:12:49.415Z,64.59
2022-10-18T13:17:50.751Z,67.87
2022-10-18T13:22:52.353Z,69.37
2022-10-18T13:27:53.996Z,69.95
2022-10-18T13:32:55.571Z,71.18
2022-10-18T13:37:58.819Z,70.93
2022-10-18T13:43:00.126Z,72.87
2022-10-18T13:48:02.366Z,71.71
2022-10-18T13:53:04.297Z,71.58
2022-10-18T13:58:05.778Z,73.59
2022-10-18T14:13:49.026Z,69.94
2022-10-18T14:18:50.281Z,67.42
2022-10-18T14:23:51.541Z,66.43
2022-10-18T14:29:00.106Z,67.12
2022-10-18T14:34:01.734Z,68.97
2022-10-18T14:39:02.988Z,69.23
2022-10-18T14:44:04.340Z,70.54
2022-10-18T14:49:06.635Z,70.00
2022-10-18T14:54:08.246Z,70.76
2022-10-18T14:59:09.510Z,70.18
2022-10-18T15:04:10.801Z,70.24
2022-10-18T15:09:12.063Z,70.43
2022-10-18T15:14:13.404Z,69.00
2022-10-18T15:19:16.639Z,69.54
2022-10-18T15:24:17.902Z,70.02
2022-10-18T15:29:22.969Z,71.12
2022-10-18T15:34:24.417Z,71.04
2022-10-18T15:39:26.072Z,69.65
2022-10-18T15:44:28.124Z,69.72
2022-10-18T15:49:29.407Z,69.96
2022-10-18T15:54:30.767Z,69.83
2022-10-18T15:59:34.547Z,69.45
2022-10-18T16:04:35.755Z,69.20
2022-10-18T16:09:36.968Z,70.73
2022-10-18T16:14:38.219Z,71.33
2022-10-18T16:19:39.456Z,72.11
2022-10-18T16:24:40.797Z,72.99
2022-10-18T16:29:41.983Z,70.86
2022-10-18T16:34:43.204Z,70.58
2022-10-18T16:39:44.431Z,74.96
2022-10-18T16:44:46.771Z,76.16
2022-10-18T16:49:48.070Z,74.59
2022-10-18T16:54:49.341Z,75.06
2022-10-18T16:59:50.538Z,74.28
2022-10-18T17:04:51.793Z,74.21
2022-10-18T17:09:53.036Z,74.51
2022-10-18T17:14:54.316Z,74.07
2022-10-18T17:19:55.931Z,74.15
2022-10-18T17:24:57.214Z,74.82
2022-10-18T17:29:58.431Z,74.37
2022-10-18T17:34:59.690Z,75.16
2022-10-18T17:40:00.941Z,75.51
2022-10-18T17:45:02.148Z,76.24
2022-10-18T17:50:03.378Z,75.24
2022-10-18T17:55:04.595Z,75.23
2022-10-18T18:00:07.475Z,75.52
2022-10-18T18:05:09.186Z,77.23
2022-10-18T18:10:10.427Z,76.83
2022-10-18T18:15:11.725Z,75.16
2022-10-18T18:20:13.013Z,76.04
2022-10-18T18:25:14.350Z,76.50
2022-10-18T18:30:17.704Z,75.95
2022-10-18T18:35:19.022Z,77.01
2022-10-18T18:40:20.623Z,77.57
2022-10-18T18:45:21.864Z,79.49
2022-10-18T18:50:23.131Z,78.38
2022-10-18T18:55:24.371Z,77.74
2022-10-18T19:00:25.614Z,77.59
2022-10-18T19:05:28.096Z,78.13
2022-10-18T19:10:29.354Z,78.60
2022-10-18T19:15:30.583Z,78.51
2022-10-18T19:20:31.911Z,78.12
2022-10-18T19:25:33.163Z,78.85
2022-10-18T19:30:34.437Z,77.87
2022-10-18T19:35:35.795Z,77.68
2022-10-18T19:40:37.027Z,77.70
2022-10-18T19:45:38.256Z,77.58
2022-10-18T19:50:39.587Z,78.19
2022-10-18T19:55:40.884Z,79.30
2022-10-18T20:00:42.113Z,78.22
2022-10-18T20:05:43.358Z,77.54
2022-10-18T20:10:44.564Z,77.74
2022-10-18T20:15:45.776Z,78.87
2022-10-18T20:20:48.192Z,79.43
2022-10-18T20:25:51.758Z,79.99
2022-10-18T20:30:52.984Z,80.00
2022-10-18T20:35:58.147Z,80.93
2022-10-18T20:40:59.377Z,79.30
2022-10-18T20:46:00.591Z,79.25
2022-10-18T20:51:01.927Z,79.40
2022-10-18T20:56:03.252Z,79.15
2022-10-18T21:01:04.511Z,78.57
2022-10-18T21:06:05.756Z,78.69
2022-10-18T21:11:07.088Z,78.45
2022-10-18T21:16:08.580Z,79.04
2022-10-18T21:21:09.977Z,79.59
2022-10-18T21:26:11.281Z,79.57
2022-10-18T21:31:12.869Z,79.01
2022-10-18T21:36:14.204Z,78.91
2022-10-18T21:41:15.498Z,79.38
2022-10-18T21:46:16.738Z,79.90
2022-10-18T21:51:17.982Z,79.34
2022-10-18T21:56:19.202Z,79.30
2022-10-18T22:01:20.578Z,78.65
2022-10-18T22:06:21.917Z,78.76
2022-10-18T22:11:23.194Z,80.21
2022-10-18T22:16:24.448Z,79.94
2022-10-18T22:21:25.743Z,79.94
2022-10-18T22:26:26.996Z,78.69
2022-10-18T22:31:28.366Z,79.43
2022-10-18T22:36:29.594Z,78.64
2022-10-18T22:41:30.814Z,82.07
2022-10-18T22:46:32.536Z,80.84
2022-10-18T22:56:39.860Z,79.45
2022-10-18T23:01:41.089Z,79.21
2022-10-18T23:06:42.355Z,78.66
2022-10-18T23:11:43.671Z,78.64
2022-10-18T23:16:45.100Z,77.85
2022-10-18T23:21:46.443Z,78.50
2022-10-18T23:26:47.741Z,79.19
2022-10-18T23:31:48.968Z,78.75
2022-10-18T23:36:50.241Z,78.20
2022-10-18T23:41:51.489Z,78.09
2022-10-18T23:46:52.970Z,78.65
2022-10-18T23:51:54.266Z,77.94
2022-10-18T23:56:55.565Z,77.77
